createdAt,value
2023-02-28T00:00:44.436Z,100916.94
2023-02-28T00:03:12.641Z,100911.91
2023-02-28T00:05:42.407Z,100922.09
2023-02-28T00:08:10.659Z,100917.03
2023-02-28T00:10:38.784Z,100918.75
2023-02-28T00:13:07.916Z,100914.56
2023-02-28T00:15:36.132Z,100915.44
2023-02-28T00:18:04.728Z,100912.03
2023-02-28T00:20:32.999Z,100920.53
2023-02-28T00:23:02.461Z,100914.59
2023-02-28T00:25:30.753Z,100912.88
2023-02-28T00:27:58.847Z,100912.03
2023-02-28T00:30:27.557Z,100913.72
2023-02-28T00:32:56.176Z,100915.38
2023-02-28T00:35:24.418Z,100908.53
2023-02-28T00:37:52.607Z,100905.16
2023-02-28T00:40:22.534Z,100904.28
2023-02-28T00:42:50.729Z,100912.72
2023-02-28T00:45:20.124Z,100915.25
2023-02-28T00:47:50.652Z,100910.16
2023-02-28T00:50:20.225Z,100911.81
2023-02-28T00:52:48.351Z,100921.06
2023-02-28T00:55:16.615Z,100916.00
2023-02-28T00:57:46.148Z,100906.69
2023-02-28T01:00:15.767Z,100926.13
2023-02-28T01:02:44.840Z,100915.03
2023-02-28T01:05:12.991Z,100915.06
2023-02-28T01:07:41.279Z,100920.09
2023-02-28T01:10:11.821Z,100915.00
2023-02-28T01:12:40.139Z,100917.50
2023-02-28T01:15:13.810Z,100914.94
2023-02-28T01:17:42.595Z,100908.13
2023-02-28T01:20:12.704Z,100911.56
2023-02-28T01:22:40.983Z,100913.22
2023-02-28T01:25:10.403Z,100911.50
2023-02-28T01:27:40.369Z,100918.25
2023-02-28T01:30:10.483Z,100909.72
2023-02-28T01:32:39.943Z,100911.41
2023-02-28T01:35:08.670Z,100907.13
2023-02-28T01:37:36.889Z,100906.25
2023-02-28T01:40:06.338Z,100907.88
2023-02-28T01:42:34.437Z,100908.72
2023-02-28T01:45:08.610Z,100900.22
2023-02-28T01:47:41.297Z,100905.31
2023-02-28T01:50:13.056Z,100901.88
2023-02-28T01:52:41.604Z,100896.81
2023-02-28T01:55:10.447Z,100897.59
2023-02-28T01:57:41.037Z,100895.03
2023-02-28T02:00:14.149Z,100897.56
2023-02-28T02:02:44.344Z,100900.09
2023-02-28T02:05:14.429Z,100890.75
2023-02-28T02:07:44.260Z,100894.13
2023-02-28T02:10:16.393Z,100889.91
2023-02-28T02:12:58.650Z,100887.34
2023-02-28T02:15:28.835Z,100887.34
2023-02-28T02:18:00.257Z,100883.88
2023-02-28T02:21:16.123Z,100878.78
2023-02-28T02:24:11.798Z,100882.97
2023-02-28T02:27:05.562Z,100873.63
2023-02-28T02:30:05.596Z,100877.84
2023-02-28T02:33:28.301Z,100880.34
2023-02-28T02:35:58.450Z,100887.13
2023-02-28T02:38:34.867Z,100887.09
2023-02-28T02:41:10.391Z,100881.22
2023-02-28T02:43:41.410Z,100876.97
2023-02-28T02:46:12.330Z,100883.72
2023-02-28T02:48:41.358Z,100883.75
2023-02-28T02:51:13.970Z,100883.75
2023-02-28T02:53:46.314Z,100887.91
2023-02-28T02:56:14.500Z,100889.59
2023-02-28T02:58:44.120Z,100887.88
2023-02-28T03:01:16.569Z,100880.25
2023-02-28T03:03:44.906Z,100884.44
2023-02-28T03:06:17.088Z,100891.19
2023-02-28T03:08:45.308Z,100885.25
2023-02-28T03:11:15.879Z,100891.19
2023-02-28T03:13:55.740Z,100886.06
2023-02-28T03:17:01.787Z,100884.34
2023-02-28T03:19:52.039Z,100885.16
2023-02-28T03:22:50.390Z,100877.53
2023-02-28T03:25:46.786Z,100880.88
2023-02-28T03:28:20.220Z,100885.03
2023-02-28T03:30:52.462Z,100890.94
2023-02-28T03:33:24.133Z,100888.41
2023-02-28T03:35:57.644Z,100883.28
2023-02-28T03:38:30.360Z,100880.75
2023-02-28T03:41:02.527Z,100879.03
2023-02-28T03:43:34.256Z,100868.84
2023-02-28T03:46:03.126Z,100874.81
2023-02-28T03:48:34.964Z,100879.00
2023-02-28T03:51:03.280Z,100877.31
2023-02-28T03:53:34.780Z,100881.50
2023-02-28T03:56:08.166Z,100873.88
2023-02-28T03:58:41.266Z,100876.41
2023-02-28T04:01:11.220Z,100876.44
2023-02-28T04:03:39.892Z,100878.97
2023-02-28T04:06:09.095Z,100881.47
2023-02-28T04:08:39.720Z,100894.97
2023-02-28T04:11:14.378Z,100878.91
2023-02-28T04:13:42.650Z,100879.75
2023-02-28T04:16:18.754Z,100885.63
2023-02-28T04:18:49.723Z,100884.78
2023-02-28T04:21:21.532Z,100885.59
2023-02-28T04:23:51.088Z,100879.69
2023-02-28T04:26:19.215Z,100884.75
2023-02-28T04:28:47.471Z,100884.72
2023-02-28T04:31:15.664Z,100881.38
2023-02-28T04:33:43.923Z,100878.84
2023-02-28T04:36:12.115Z,100874.63
2023-02-28T04:38:40.638Z,100874.59
2023-02-28T04:41:10.177Z,100882.19
2023-02-28T04:43:38.318Z,100875.44
2023-02-28T04:46:07.008Z,100880.47
2023-02-28T04:48:36.577Z,100880.47
2023-02-28T04:51:05.262Z,100878.75
2023-02-28T04:53:33.443Z,100880.41
2023-02-28T04:56:01.796Z,100880.41
2023-02-28T04:58:31.385Z,100881.22
2023-02-28T05:01:04.203Z,100877.81
2023-02-28T05:03:32.417Z,100885.38
2023-02-28T05:06:00.678Z,100892.97
2023-02-28T05:08:30.681Z,100890.41
2023-02-28T05:10:58.838Z,100894.69
2023-02-28T05:13:26.977Z,100895.56
2023-02-28T05:15:56.523Z,100894.69
2023-02-28T05:18:24.689Z,100894.75
2023-02-28T05:20:52.911Z,100904.09
2023-02-28T05:23:21.083Z,100891.47
2023-02-28T05:25:49.315Z,100898.28
2023-02-28T05:28:17.468Z,100899.19
2023-02-28T05:30:45.757Z,100895.03
2023-02-28T05:33:15.359Z,100893.38
2023-02-28T05:35:44.064Z,100898.44
2023-02-28T05:38:12.477Z,100901.84
2023-02-28T05:40:41.206Z,100893.44
2023-02-28T05:43:12.634Z,100901.88
2023-02-28T05:45:40.832Z,100904.44
2023-02-28T05:48:10.095Z,100906.09
2023-02-28T05:50:39.763Z,100901.88
2023-02-28T05:53:07.925Z,100910.34
2023-02-28T05:55:36.971Z,100906.94
2023-02-28T05:58:05.149Z,100906.09
2023-02-28T06:00:33.424Z,100912.84
2023-02-28T06:03:03.060Z,100911.19
2023-02-28T06:05:31.453Z,100908.66
2023-02-28T06:08:01.387Z,100910.34
2023-02-28T06:10:29.540Z,100911.19
2023-02-28T06:12:57.805Z,100921.31
2023-02-28T06:15:26.229Z,100914.56
2023-02-28T06:17:54.406Z,100913.66
2023-02-28T06:20:22.664Z,100930.56
2023-02-28T06:22:51.669Z,100912.75
2023-02-28T06:25:21.398Z,100914.44
2023-02-28T06:27:50.198Z,100905.88
2023-02-28T06:30:18.872Z,100924.63
2023-02-28T06:32:47.035Z,100921.25
2023-02-28T06:35:15.306Z,100924.72
2023-02-28T06:37:44.904Z,100923.06
2023-02-28T06:40:14.738Z,100927.34
2023-02-28T06:42:44.474Z,100927.38
2023-02-28T06:45:13.304Z,100926.50
2023-02-28T06:47:42.340Z,100912.19
2023-02-28T06:50:12.387Z,100923.22
2023-02-28T06:52:40.774Z,100919.91
2023-02-28T06:55:10.304Z,100927.59
2023-02-28T06:57:38.415Z,100924.25
2023-02-28T07:00:10.408Z,100924.28
2023-02-28T07:02:38.691Z,100934.53
2023-02-28T07:05:07.685Z,100940.50
2023-02-28T07:07:37.376Z,100946.47
2023-02-28T07:10:06.434Z,100939.75
2023-02-28T07:12:34.638Z,100944.97
2023-02-28T07:15:04.133Z,100945.34
2023-02-28T07:17:33.696Z,100933.34
2023-02-28T07:20:01.949Z,100934.72
2023-02-28T07:22:30.542Z,100935.81
2023-02-28T07:24:58.882Z,100933.25
2023-02-28T07:27:27.092Z,100926.28
2023-02-28T07:29:55.974Z,100914.81
2023-02-28T07:32:24.208Z,100914.38
2023-02-28T07:34:53.801Z,100914.63
2023-02-28T07:37:21.938Z,100917.38
2023-02-28T07:39:50.143Z,100910.78
2023-02-28T07:42:18.369Z,100902.19
2023-02-28T07:44:46.511Z,100917.66
2023-02-28T07:47:14.811Z,100908.41
2023-02-28T07:49:43.095Z,100910.56
2023-02-28T07:52:12.690Z,100909.63
2023-02-28T07:54:40.949Z,100915.19
2023-02-28T07:57:09.746Z,100903.22
2023-02-28T07:59:37.961Z,100902.44
2023-02-28T08:02:06.172Z,100900.94
2023-02-28T08:04:34.507Z,100908.47
2023-02-28T08:07:02.780Z,100900.09
2023-02-28T08:09:32.290Z,100906.34
2023-02-28T08:12:00.443Z,100911.66
2023-02-28T08:14:28.646Z,100913.19
2023-02-28T08:16:56.828Z,100900.69
2023-02-28T08:19:25.012Z,100908.19
2023-02-28T08:21:53.154Z,100896.63
2023-02-28T08:24:21.262Z,100897.31
2023-02-28T08:26:50.819Z,100897.41
2023-02-28T08:29:18.962Z,100896.44
2023-02-28T08:31:47.301Z,100894.38
2023-02-28T08:34:16.814Z,100884.75
2023-02-28T08:36:45.909Z,100886.50
2023-02-28T08:39:14.191Z,100884.41
2023-02-28T08:41:43.748Z,100889.53
2023-02-28T08:44:13.141Z,100886.44
2023-02-28T08:46:41.362Z,100871.59
2023-02-28T08:49:10.560Z,100885.91
2023-02-28T08:51:38.689Z,100885.41
2023-02-28T08:54:06.935Z,100895.13
2023-02-28T08:56:35.202Z,100886.50
2023-02-28T08:59:03.317Z,100901.44
2023-02-28T09:04:18.631Z,100879.81
2023-02-28T09:06:49.642Z,100860.38
2023-02-28T09:09:18.230Z,100874.22
2023-02-28T09:11:46.674Z,100882.41
2023-02-28T09:14:15.185Z,100871.50
2023-02-28T09:16:43.518Z,100884.38
2023-02-28T09:19:13.265Z,100892.78
2023-02-28T09:21:43.326Z,100905.38
2023-02-28T09:27:13.112Z,100890.16
2023-02-28T09:29:41.389Z,100891.59
2023-02-28T09:32:33.442Z,100913.13
2023-02-28T09:35:01.958Z,100908.91
2023-02-28T09:37:32.181Z,100896.50
2023-02-28T09:40:00.650Z,100898.16
2023-02-28T09:42:33.948Z,100893.75
2023-02-28T09:45:04.838Z,100906.50
2023-02-28T09:47:36.645Z,100879.22
2023-02-28T09:50:26.755Z,100894.34
2023-02-28T09:52:58.680Z,100884.78
2023-02-28T09:55:46.190Z,100872.59
2023-02-28T09:58:28.330Z,100883.41
